createdAt,value
2018-06-28T00:01:48.266Z,1.90
2018-06-28T00:04:15.379Z,2.40
2018-06-28T00:06:42.468Z,2.77
2018-06-28T00:09:09.580Z,2.03
2018-06-28T00:14:21.084Z,2.87
2018-06-28T00:16:48.207Z,2.60
2018-06-28T00:21:48.107Z,2.80
2018-06-28T00:27:04.724Z,4.43
2018-06-28T00:29:40.232Z,3.03
2018-06-28T00:34:54.935Z,2.50
2018-06-28T00:37:22.060Z,3.53
2018-06-28T00:39:57.596Z,3.10
2018-06-28T00:42:24.703Z,3.70
2018-06-28T00:44:58.864Z,3.03
2018-06-28T00:47:26.848Z,3.57
2018-06-28T00:50:01.790Z,4.07
2018-06-28T00:52:28.888Z,3.93
2018-06-28T00:55:02.310Z,3.07
2018-06-28T00:57:30.407Z,5.07
2018-06-28T00:59:58.205Z,2.37
2018-06-28T01:10:07.011Z,2.73
2018-06-28T01:12:39.953Z,2.80
2018-06-28T01:15:07.688Z,6.70
2018-06-28T01:17:41.159Z,3.67
2018-06-28T01:22:50.313Z,4.15
2018-06-28T01:25:17.447Z,4.53
2018-06-28T01:30:47.658Z,4.53
2018-06-28T01:38:49.317Z,4.33
2018-06-28T01:41:20.688Z,4.53
2018-06-28T01:43:47.754Z,4.37
2018-06-28T01:46:29.650Z,4.57
2018-06-28T01:49:02.898Z,4.77
2018-06-28T01:51:30.038Z,7.90
2018-06-28T01:59:29.830Z,4.40
2018-06-28T02:02:00.316Z,4.80
2018-06-28T02:04:31.442Z,4.67
2018-06-28T02:07:08.417Z,3.83
2018-06-28T02:09:35.530Z,6.20
2018-06-28T02:12:02.705Z,4.00
2018-06-28T02:14:29.859Z,4.60
2018-06-28T02:16:56.938Z,4.23
2018-06-28T02:19:24.982Z,4.60
2018-06-28T02:27:16.777Z,5.15
2018-06-28T02:40:48.088Z,4.90
2018-06-28T02:43:15.214Z,4.13
2018-06-28T02:45:49.343Z,4.00
2018-06-28T02:48:32.872Z,8.70
2018-06-28T02:53:58.721Z,5.97
2018-06-28T02:56:28.737Z,4.83
2018-06-28T02:59:13.021Z,6.20
2018-06-28T03:07:04.478Z,6.27
2018-06-28T03:09:35.404Z,6.13
2018-06-28T03:12:03.884Z,6.17
2018-06-28T03:14:31.000Z,5.70
2018-06-28T03:16:58.097Z,7.60
2018-06-28T03:19:42.192Z,6.53
2018-06-28T03:22:12.812Z,6.53
2018-06-28T03:24:46.451Z,6.90
2018-06-28T03:27:14.531Z,6.60
2018-06-28T03:32:26.851Z,6.30
2018-06-28T03:35:04.878Z,8.33
2018-06-28T03:45:49.577Z,6.37
2018-06-28T03:48:17.405Z,6.57
2018-06-28T03:50:44.530Z,6.60
2018-06-28T03:53:12.572Z,7.20
2018-06-28T04:03:17.807Z,6.27
2018-06-28T04:08:25.014Z,7.07
2018-06-28T04:10:52.184Z,5.73
2018-06-28T04:13:21.199Z,7.13
2018-06-28T04:15:48.273Z,7.00
2018-06-28T04:18:15.296Z,5.77
2018-06-28T04:20:42.320Z,6.00
2018-06-28T04:23:16.039Z,6.50
2018-06-28T04:25:43.070Z,6.70
2018-06-28T04:28:12.751Z,7.50
2018-06-28T04:30:39.823Z,5.63
2018-06-28T04:33:06.844Z,7.07
2018-06-28T04:35:35.136Z,7.63
2018-06-28T04:38:02.210Z,6.17
2018-06-28T04:40:29.236Z,6.33
2018-06-28T04:42:56.280Z,8.87
2018-06-28T04:45:23.349Z,7.17
2018-06-28T04:47:50.371Z,6.83
2018-06-28T04:50:17.406Z,6.80
2018-06-28T04:55:20.640Z,7.62
2018-06-28T04:57:48.117Z,6.07
2018-06-28T05:02:52.415Z,8.52
2018-06-28T05:05:24.788Z,6.67
2018-06-28T05:07:51.854Z,9.17
2018-06-28T05:13:08.396Z,8.83
2018-06-28T05:20:57.668Z,7.87
2018-06-28T05:23:41.886Z,6.93
2018-06-28T05:26:16.623Z,6.70
2018-06-28T05:28:43.657Z,8.17
2018-06-28T05:31:10.656Z,6.93
2018-06-28T05:33:38.623Z,7.13
2018-06-28T05:36:05.712Z,8.20
2018-06-28T05:38:33.546Z,7.63
2018-06-28T05:41:01.288Z,6.67
2018-06-28T05:43:28.922Z,7.10
2018-06-28T05:45:57.251Z,7.47
2018-06-28T05:48:25.099Z,6.80
2018-06-28T05:50:52.549Z,8.37
2018-06-28T05:53:19.582Z,6.77
2018-06-28T05:55:46.665Z,8.37
2018-06-28T05:58:13.825Z,7.20
2018-06-28T06:00:40.967Z,7.70
2018-06-28T06:03:08.605Z,7.07
2018-06-28T06:05:36.286Z,6.57
2018-06-28T06:08:03.284Z,6.87
2018-06-28T06:10:30.295Z,8.03
2018-06-28T06:12:57.376Z,8.23
2018-06-28T06:15:24.381Z,8.57
2018-06-28T06:20:31.001Z,8.02
2018-06-28T06:22:58.020Z,9.77
2018-06-28T06:25:25.074Z,8.80
2018-06-28T06:27:57.129Z,9.87
2018-06-28T06:30:29.582Z,7.00
2018-06-28T06:33:00.286Z,6.50
2018-06-28T06:35:28.716Z,6.60
2018-06-28T06:37:57.346Z,8.53
2018-06-28T06:43:03.668Z,8.05
2018-06-28T06:59:21.003Z,6.33
2018-06-28T07:01:52.824Z,6.47
2018-06-28T07:07:03.155Z,7.25
2018-06-28T07:09:31.636Z,7.10
2018-06-28T07:28:58.983Z,8.82
2018-06-28T07:31:28.705Z,6.77
2018-06-28T08:13:49.060Z,8.47
2018-06-28T08:19:08.990Z,6.18
2018-06-28T08:21:37.130Z,5.27
2018-06-28T08:26:49.059Z,7.03
2018-06-28T08:31:55.525Z,7.12
2018-06-28T08:34:39.435Z,6.10
2018-06-28T08:56:24.727Z,5.97
2018-06-28T08:58:58.067Z,7.70
2018-06-28T09:04:19.365Z,7.60
2018-06-28T11:10:53.878Z,4.97
2018-06-28T11:13:27.048Z,6.03
2018-06-28T11:15:57.801Z,6.43
2018-06-28T11:18:32.511Z,5.53
2018-06-28T11:21:01.513Z,6.43
2018-06-28T11:26:10.199Z,7.30
2018-06-28T11:28:38.692Z,7.30
2018-06-28T11:31:12.196Z,7.70
2018-06-28T11:58:24.317Z,5.47
2018-06-28T12:00:52.859Z,5.57
2018-06-28T12:14:33.740Z,6.83
2018-06-28T12:17:09.130Z,5.47
2018-06-28T12:19:52.458Z,7.20
2018-06-28T12:27:47.817Z,6.15
2018-06-28T12:30:30.162Z,6.23
2018-06-28T12:38:46.449Z,5.60
2018-06-28T13:00:45.494Z,6.70
2018-06-28T13:19:56.241Z,5.87
2018-06-28T13:22:31.285Z,5.03
2018-06-28T13:47:12.923Z,6.07
2018-06-28T14:11:43.254Z,7.33
2018-06-28T14:39:09.575Z,8.90
2018-06-28T14:41:41.201Z,9.30
2018-06-28T15:03:36.190Z,9.40
2018-06-28T15:11:43.402Z,9.88
2018-06-28T15:36:21.073Z,8.00
2018-06-28T15:44:21.396Z,11.52
2018-06-28T15:49:24.049Z,10.82
2018-06-28T15:51:51.288Z,7.93
2018-06-28T15:54:26.650Z,9.77
2018-06-28T15:56:53.792Z,7.50
2018-06-28T15:59:24.202Z,8.73
2018-06-28T16:01:51.327Z,9.10
2018-06-28T16:04:18.621Z,7.87
2018-06-28T16:06:49.307Z,8.20
2018-06-28T16:09:23.026Z,8.17
2018-06-28T16:20:00.968Z,9.80
2018-06-28T16:22:28.092Z,10.97
2018-06-28T16:29:14.771Z,7.60
2018-06-28T16:31:41.878Z,9.53
2018-06-28T16:34:08.911Z,6.43
2018-06-28T16:36:44.826Z,8.63
2018-06-28T16:39:19.332Z,7.93
2018-06-28T16:41:47.353Z,7.37
2018-06-28T16:44:14.826Z,7.57
2018-06-28T16:46:41.987Z,9.53
2018-06-28T16:49:10.143Z,9.23
2018-06-28T16:51:45.782Z,10.80
2018-06-28T16:54:12.899Z,10.27
2018-06-28T16:56:39.986Z,10.57
2018-06-28T16:59:07.100Z,11.37
2018-06-28T17:01:42.442Z,9.03
2018-06-28T17:04:10.436Z,12.87
2018-06-28T17:11:57.972Z,10.65
2018-06-28T17:14:39.056Z,9.40
2018-06-28T17:17:06.170Z,10.90
2018-06-28T17:19:37.355Z,9.53
2018-06-28T17:22:04.619Z,8.37
2018-06-28T17:24:39.663Z,8.60
2018-06-28T17:27:08.537Z,7.93
2018-06-28T17:32:17.345Z,8.50
2018-06-28T17:34:44.406Z,7.30
2018-06-28T17:37:13.279Z,8.67
2018-06-28T17:39:40.469Z,7.67
2018-06-28T17:42:11.912Z,7.77
2018-06-28T17:44:38.928Z,7.60
2018-06-28T17:47:16.418Z,7.07
2018-06-28T17:49:44.610Z,5.53
2018-06-28T17:52:12.222Z,6.33
2018-06-28T17:54:45.156Z,4.63
2018-06-28T17:57:14.930Z,9.00
2018-06-28T17:59:47.591Z,6.03
2018-06-28T18:02:21.081Z,5.10
2018-06-28T18:07:25.661Z,7.03
2018-06-28T18:20:38.043Z,4.23
2018-06-28T18:35:10.073Z,6.67
2018-06-28T19:03:01.307Z,8.73
2018-06-28T19:05:29.004Z,5.90
2018-06-28T19:07:56.616Z,6.63
2018-06-28T19:10:24.783Z,7.27
2018-06-28T19:15:29.075Z,5.35
2018-06-28T19:20:33.731Z,6.40
2018-06-28T19:23:01.029Z,6.20
2018-06-28T19:25:29.975Z,3.93
2018-06-28T19:28:14.384Z,3.77
2018-06-28T19:30:45.099Z,3.07
2018-06-28T19:35:59.778Z,4.18
2018-06-28T19:38:31.917Z,4.40
2018-06-28T19:41:03.061Z,3.37
2018-06-28T19:46:13.395Z,3.97
2018-06-28T19:48:42.271Z,3.23
2018-06-28T19:51:09.781Z,2.67
2018-06-28T19:53:37.097Z,3.67
2018-06-28T19:56:04.722Z,4.53
2018-06-28T19:58:31.937Z,2.90
2018-06-28T20:00:59.065Z,2.20
2018-06-28T20:03:26.383Z,5.83
2018-06-28T20:05:53.530Z,3.20
2018-06-28T20:08:21.103Z,4.60
2018-06-28T20:10:48.238Z,4.57
2018-06-28T20:13:15.811Z,3.07
2018-06-28T20:15:42.861Z,4.37
2018-06-28T20:18:10.224Z,6.50
2018-06-28T20:20:37.784Z,5.43
2018-06-28T20:23:05.834Z,4.23
2018-06-28T20:25:32.919Z,3.63
2018-06-28T20:27:59.978Z,3.80
2018-06-28T20:30:27.038Z,4.40
2018-06-28T20:32:54.905Z,3.80
2018-06-28T20:35:21.887Z,4.07
2018-06-28T20:37:48.930Z,4.17
2018-06-28T20:40:15.937Z,4.40
2018-06-28T20:42:42.951Z,2.97
2018-06-28T20:45:10.995Z,6.17
2018-06-28T20:47:37.950Z,3.67
2018-06-28T20:50:04.966Z,5.47
2018-06-28T20:52:32.943Z,5.53
2018-06-28T20:55:00.051Z,5.47
2018-06-28T20:57:27.052Z,7.43
2018-06-28T20:59:54.109Z,8.60
2018-06-28T21:04:59.746Z,8.27
2018-06-28T21:07:26.920Z,7.60
2018-06-28T21:09:53.956Z,9.40
2018-06-28T21:12:21.794Z,6.53
2018-06-28T21:14:52.799Z,6.93
2018-06-28T21:17:19.824Z,8.03
2018-06-28T21:19:46.860Z,6.03
2018-06-28T21:22:13.873Z,7.10
2018-06-28T21:24:40.894Z,8.77
2018-06-28T21:27:07.952Z,5.73
2018-06-28T21:29:42.286Z,6.70
2018-06-28T21:32:09.386Z,7.37
2018-06-28T21:34:36.429Z,7.97
2018-06-28T21:37:03.451Z,4.70
2018-06-28T21:39:30.547Z,5.40
2018-06-28T21:41:57.807Z,6.13
2018-06-28T21:44:25.012Z,6.10
2018-06-28T21:46:52.214Z,5.50
2018-06-28T21:49:19.214Z,6.77
2018-06-28T21:51:46.215Z,8.13
2018-06-28T21:54:14.097Z,6.93
2018-06-28T21:56:41.103Z,6.80
2018-06-28T21:59:08.118Z,7.60
2018-06-28T22:01:35.148Z,6.60
2018-06-28T22:04:02.164Z,7.20
2018-06-28T22:06:29.162Z,7.90
2018-06-28T22:08:56.206Z,7.63
2018-06-28T22:11:23.215Z,7.60
2018-06-28T22:13:50.231Z,6.67
2018-06-28T22:16:17.261Z,9.30
2018-06-28T22:18:44.250Z,8.17
2018-06-28T22:21:11.251Z,7.80
2018-06-28T22:23:38.300Z,7.60
2018-06-28T22:28:43.815Z,7.20
2018-06-28T22:31:10.821Z,7.77
2018-06-28T22:33:37.913Z,7.33
2018-06-28T22:36:04.954Z,8.20
2018-06-28T22:38:31.996Z,7.03
2018-06-28T22:40:59.007Z,7.23
2018-06-28T22:43:26.061Z,9.63
2018-06-28T22:45:53.058Z,8.27
2018-06-28T22:48:20.055Z,6.37
2018-06-28T22:50:47.206Z,6.50
2018-06-28T22:53:14.253Z,6.60
2018-06-28T22:55:41.603Z,6.83
2018-06-28T23:00:48.750Z,8.68
2018-06-28T23:03:15.783Z,7.73
2018-06-28T23:05:42.772Z,8.20
2018-06-28T23:08:09.749Z,7.33
2018-06-28T23:10:36.760Z,8.17
2018-06-28T23:13:03.758Z,8.43
2018-06-28T23:15:30.757Z,9.20
2018-06-28T23:17:57.799Z,7.43
2018-06-28T23:20:24.803Z,9.63
2018-06-28T23:22:51.793Z,9.23
2018-06-28T23:25:18.826Z,9.30
2018-06-28T23:27:45.817Z,10.90
2018-06-28T23:30:12.832Z,8.03
2018-06-28T23:32:39.966Z,8.83
2018-06-28T23:35:06.961Z,10.93
2018-06-28T23:37:33.958Z,9.20
2018-06-28T23:40:00.999Z,8.87
2018-06-28T23:42:27.993Z,9.13
2018-06-28T23:44:55.804Z,8.67
2018-06-28T23:47:22.846Z,9.70
2018-06-28T23:49:49.845Z,8.40
2018-06-28T23:52:16.844Z,9.40
2018-06-28T23:54:43.868Z,8.67
2018-06-28T23:57:10.868Z,6.53
2018-06-28T23:59:37.968Z,9.17
